Nutley, New Jersey
Current Conditions -  °F | °C
As of 1:51 AM on Saturday 25 Oct 2014 (Local Time) from KTEB Reporting Station
Clear Clear  
Wind Chill: 10°   Ceiling: Unl
Heat Index: 10°   Visibility: 10mi
Dew Point:   Wind: 0mph
Humidity: 57%   Direction: NA
Pressure: 29.85"   Gusts: NA
Location:  40.82°N, 74.16°W
Report Text: KTEB 250551Z 00000KT 10SM CLR 10/02 A2985 RMK AO2 SLP108 T01000017 10144 20100 53006
Loading
Personal Weather Stations






























Interactive Weather Map
Tropical Storm Tracking
New forecast layout! Learn more

10-Day Weather Forecast

Advertisements
Track Severe Weather on mobile